createdAt,value
2022-08-28T00:00:38.931Z,2.80
2022-08-28T00:03:07.904Z,2.85
2022-08-28T00:05:39.731Z,2.90
2022-08-28T00:08:11.077Z,2.80
2022-08-28T00:10:40.327Z,3.13
2022-08-28T00:13:09.340Z,3.45
2022-08-28T00:15:40.455Z,2.70
2022-08-28T00:18:09.797Z,3.17
2022-08-28T00:20:41.444Z,3.38
2022-08-28T00:23:11.341Z,2.55
2022-08-28T00:25:39.298Z,2.85
2022-08-28T00:28:10.197Z,3.08
2022-08-28T00:30:41.157Z,2.78
2022-08-28T00:33:13.834Z,2.88
2022-08-28T00:35:42.915Z,3.28
2022-08-28T00:38:13.943Z,3.90
2022-08-28T00:40:44.792Z,3.50
2022-08-28T00:43:26.049Z,3.13
2022-08-28T00:45:54.386Z,3.10
2022-08-28T00:48:22.617Z,3.00
2022-08-28T00:51:07.200Z,3.08
2022-08-28T00:53:36.657Z,2.92
2022-08-28T00:56:10.212Z,2.83
2022-08-28T00:58:43.464Z,3.05
2022-08-28T01:01:15.028Z,3.08
2022-08-28T01:03:43.319Z,2.95
2022-08-28T01:06:12.897Z,3.20
2022-08-28T01:08:44.974Z,3.25
2022-08-28T01:11:19.512Z,2.78
2022-08-28T01:13:49.213Z,3.10
2022-08-28T01:16:20.242Z,3.05
2022-08-28T01:18:50.676Z,2.72
2022-08-28T01:21:41.762Z,3.05
2022-08-28T01:24:15.667Z,3.00
2022-08-28T01:26:44.374Z,3.30
2022-08-28T01:29:13.280Z,2.88
2022-08-28T01:31:42.213Z,3.25
2022-08-28T01:34:12.988Z,2.88
2022-08-28T01:36:41.304Z,2.83
2022-08-28T01:39:14.368Z,2.97
2022-08-28T01:41:45.822Z,2.75
2022-08-28T01:44:14.916Z,3.20
2022-08-28T01:46:46.805Z,2.95
2022-08-28T01:49:15.418Z,3.65
2022-08-28T01:51:44.288Z,2.88
2022-08-28T01:54:14.217Z,3.17
2022-08-28T01:56:43.947Z,3.10
2022-08-28T01:59:16.388Z,2.95
2022-08-28T02:01:44.939Z,3.20
2022-08-28T02:04:13.253Z,2.92
2022-08-28T02:06:41.747Z,3.47
2022-08-28T02:09:14.645Z,3.28
2022-08-28T02:11:46.577Z,3.20
2022-08-28T02:14:15.252Z,3.35
2022-08-28T02:16:43.323Z,3.35
2022-08-28T02:19:12.166Z,3.42
2022-08-28T02:21:40.457Z,3.00
2022-08-28T02:24:09.040Z,3.10
2022-08-28T02:26:37.222Z,3.03
2022-08-28T02:29:07.056Z,2.95
2022-08-28T02:31:35.097Z,3.00
2022-08-28T02:34:03.346Z,3.15
2022-08-28T02:36:31.713Z,2.90
2022-08-28T02:38:59.651Z,3.00
2022-08-28T02:41:27.927Z,3.00
2022-08-28T02:43:55.963Z,3.53
2022-08-28T02:46:26.382Z,3.15
2022-08-28T02:48:56.330Z,3.25
2022-08-28T02:51:24.372Z,2.67
2022-08-28T02:53:53.591Z,2.80
2022-08-28T02:56:21.617Z,2.92
2022-08-28T02:58:49.603Z,2.85
2022-08-28T03:01:17.627Z,3.00
2022-08-28T03:03:47.079Z,3.08
2022-08-28T03:06:15.163Z,3.25
2022-08-28T03:08:44.219Z,3.55
2022-08-28T03:11:15.364Z,3.25
2022-08-28T03:13:43.398Z,2.63
2022-08-28T03:16:11.593Z,3.08
2022-08-28T03:18:39.977Z,3.00
2022-08-28T03:21:09.618Z,3.50
2022-08-28T03:23:37.798Z,2.95
2022-08-28T03:26:08.967Z,2.95
2022-08-28T03:28:39.697Z,3.22
2022-08-28T03:31:08.665Z,2.80
2022-08-28T03:33:37.281Z,3.30
2022-08-28T03:36:12.919Z,2.80
2022-08-28T03:38:41.951Z,2.90
2022-08-28T03:41:12.056Z,2.92
2022-08-28T03:43:40.343Z,2.88
2022-08-28T03:46:09.300Z,2.67
2022-08-28T03:48:39.087Z,2.65
2022-08-28T03:51:15.094Z,2.90
2022-08-28T03:53:44.632Z,3.60
2022-08-28T03:56:14.810Z,3.33
2022-08-28T03:58:43.868Z,3.42
2022-08-28T04:01:11.930Z,2.72
2022-08-28T04:03:40.384Z,2.90
2022-08-28T04:06:08.911Z,3.15
2022-08-28T04:08:38.468Z,2.80
2022-08-28T04:11:06.901Z,3.00
2022-08-28T04:13:35.220Z,3.13
2022-08-28T04:16:06.570Z,2.90
2022-08-28T04:18:35.641Z,3.20
2022-08-28T04:21:07.945Z,3.42
2022-08-28T04:23:36.331Z,2.60
2022-08-28T04:26:07.372Z,3.20
2022-08-28T04:28:36.060Z,3.30
2022-08-28T04:31:05.174Z,3.10
2022-08-28T04:33:33.155Z,3.17
2022-08-28T04:36:03.794Z,3.17
2022-08-28T04:38:32.144Z,3.40
2022-08-28T04:41:00.608Z,3.05
2022-08-28T04:43:29.959Z,3.55
2022-08-28T04:45:58.713Z,3.13
2022-08-28T04:48:27.572Z,3.10
2022-08-28T04:50:55.668Z,3.30
2022-08-28T04:53:24.745Z,2.75
2022-08-28T04:55:55.345Z,2.63
2022-08-28T04:58:24.587Z,3.45
2022-08-28T05:00:55.555Z,2.92
2022-08-28T05:03:24.513Z,2.97
2022-08-28T05:05:54.441Z,3.00
2022-08-28T05:08:26.960Z,2.72
2022-08-28T05:10:55.494Z,3.30
2022-08-28T05:13:24.024Z,3.50
2022-08-28T05:15:55.348Z,3.05
2022-08-28T05:18:24.361Z,3.35
2022-08-28T05:20:52.327Z,2.97
2022-08-28T05:23:22.093Z,3.30
2022-08-28T05:25:53.469Z,3.13
2022-08-28T05:28:21.505Z,3.25
2022-08-28T05:30:49.472Z,2.92
2022-08-28T05:33:19.964Z,3.15
2022-08-28T05:35:48.497Z,3.10
2022-08-28T05:38:18.204Z,3.40
2022-08-28T05:40:50.028Z,3.45
2022-08-28T05:43:19.264Z,3.10
2022-08-28T05:45:47.291Z,3.15
2022-08-28T05:48:16.354Z,3.20
2022-08-28T05:50:47.693Z,3.38
2022-08-28T05:53:17.405Z,3.20
2022-08-28T05:55:45.489Z,3.20
2022-08-28T05:58:33.581Z,3.22
2022-08-28T06:01:13.380Z,2.85
2022-08-28T06:03:42.682Z,3.22
2022-08-28T06:06:13.252Z,3.38
2022-08-28T06:08:58.175Z,3.25
2022-08-28T06:11:27.464Z,3.78
2022-08-28T06:14:01.377Z,3.17
2022-08-28T06:16:30.123Z,3.20
2022-08-28T06:18:58.215Z,3.80
2022-08-28T06:21:27.673Z,3.60
2022-08-28T06:23:56.134Z,3.42
2022-08-28T06:26:24.695Z,3.35
2022-08-28T06:28:53.664Z,4.88
2022-08-28T06:31:26.461Z,3.65
2022-08-28T06:33:56.060Z,3.63
2022-08-28T06:36:30.749Z,3.92
2022-08-28T06:39:01.046Z,3.15
2022-08-28T06:41:32.096Z,3.30
2022-08-28T06:44:00.923Z,3.47
2022-08-28T06:46:30.462Z,3.67
2022-08-28T06:48:58.538Z,3.20
2022-08-28T06:51:26.480Z,3.30
2022-08-28T06:53:54.471Z,2.85
2022-08-28T06:56:26.117Z,3.53
2022-08-28T06:58:57.085Z,3.40
2022-08-28T07:01:29.259Z,2.80
2022-08-28T07:04:00.453Z,3.30
2022-08-28T07:06:31.699Z,3.20
2022-08-28T07:08:59.691Z,3.05
2022-08-28T07:11:31.458Z,3.58
2022-08-28T07:14:00.797Z,3.42
2022-08-28T07:16:31.172Z,3.58
2022-08-28T07:18:59.871Z,3.10
2022-08-28T07:21:28.047Z,3.30
2022-08-28T07:23:56.308Z,3.35
2022-08-28T07:26:26.534Z,3.13
2022-08-28T07:29:10.026Z,3.40
2022-08-28T07:31:41.710Z,3.50
2022-08-28T07:34:10.957Z,3.85
2022-08-28T07:36:39.746Z,3.13
2022-08-28T07:39:08.507Z,3.10
2022-08-28T07:41:39.385Z,3.60
2022-08-28T07:44:27.447Z,2.92
2022-08-28T07:46:56.269Z,4.00
2022-08-28T07:49:25.126Z,3.70
2022-08-28T07:51:53.852Z,3.50
2022-08-28T07:54:22.256Z,2.72
2022-08-28T07:56:50.632Z,3.90
2022-08-28T07:59:20.308Z,3.10
2022-08-28T08:01:52.616Z,3.00
2022-08-28T08:04:22.341Z,3.30
2022-08-28T08:06:55.597Z,2.95
2022-08-28T08:09:26.321Z,3.42
2022-08-28T08:11:56.288Z,2.70
2022-08-28T08:14:28.956Z,2.70
2022-08-28T08:16:56.945Z,2.85
2022-08-28T08:19:24.976Z,3.03
2022-08-28T08:21:54.947Z,2.78
2022-08-28T08:24:26.208Z,2.92
2022-08-28T08:26:59.802Z,3.13
2022-08-28T08:29:32.417Z,2.72
2022-08-28T08:32:05.801Z,4.35
2022-08-28T08:34:36.412Z,2.83
2022-08-28T08:37:05.613Z,2.60
2022-08-28T08:39:34.166Z,2.88
2022-08-28T08:42:05.012Z,2.90
2022-08-28T08:44:37.800Z,2.78
2022-08-28T08:47:14.914Z,3.10
2022-08-28T08:49:48.685Z,3.80
2022-08-28T08:52:27.126Z,2.65
2022-08-28T08:55:07.229Z,3.20
2022-08-28T08:57:37.252Z,2.53
2022-08-28T09:00:15.035Z,2.58
2022-08-28T09:02:51.467Z,3.65
2022-08-28T09:05:23.479Z,2.83
2022-08-28T09:07:57.029Z,2.92
2022-08-28T09:10:26.749Z,2.70
2022-08-28T09:13:00.995Z,2.63
2022-08-28T09:15:33.951Z,3.10
2022-08-28T09:18:11.861Z,2.92
2022-08-28T09:20:40.422Z,3.20
2022-08-28T09:23:13.407Z,2.58
2022-08-28T09:25:51.985Z,2.53
2022-08-28T09:28:23.919Z,3.00
2022-08-28T09:31:01.292Z,2.80
2022-08-28T09:33:42.125Z,4.55
2022-08-28T09:36:26.977Z,2.75
2022-08-28T09:39:08.241Z,3.00
2022-08-28T09:41:57.428Z,2.95
2022-08-28T09:44:25.531Z,2.97
2022-08-28T09:46:54.965Z,2.90
2022-08-28T09:49:29.365Z,2.70
2022-08-28T09:51:59.548Z,2.92
2022-08-28T09:54:33.595Z,2.90
2022-08-28T09:57:03.528Z,3.50
2022-08-28T09:59:32.228Z,3.05
2022-08-28T10:02:24.077Z,2.85
2022-08-28T10:05:00.111Z,2.75
2022-08-28T10:07:38.394Z,3.00
2022-08-28T10:10:32.685Z,2.80
2022-08-28T10:13:16.141Z,2.60
2022-08-28T10:15:58.755Z,2.83
2022-08-28T10:18:41.156Z,2.40
2022-08-28T10:21:19.108Z,2.22
2022-08-28T10:24:05.389Z,2.80
2022-08-28T10:26:42.774Z,3.75
2022-08-28T10:29:34.502Z,2.97
2022-08-28T10:32:16.985Z,2.80
2022-08-28T10:34:59.805Z,2.70
2022-08-28T10:37:37.593Z,2.47
2022-08-28T10:40:11.618Z,2.30
2022-08-28T10:42:44.997Z,2.65
2022-08-28T10:45:17.634Z,2.30
2022-08-28T10:47:50.519Z,2.17
2022-08-28T10:50:24.639Z,2.47
2022-08-28T10:53:01.077Z,2.28
2022-08-28T10:55:37.319Z,2.38
2022-08-28T10:58:24.849Z,2.95
2022-08-28T11:00:56.515Z,2.65
2022-08-28T11:03:35.094Z,2.63
2022-08-28T11:06:11.589Z,3.15
2022-08-28T11:08:40.791Z,2.53
2022-08-28T11:11:14.092Z,4.90
2022-08-28T11:13:48.713Z,2.33
2022-08-28T11:16:23.958Z,2.20
2022-08-28T11:19:30.170Z,2.33
2022-08-28T11:22:09.693Z,2.33
2022-08-28T11:24:47.156Z,2.10
2022-08-28T11:27:25.543Z,2.30
2022-08-28T11:30:01.496Z,2.50
2022-08-28T11:32:56.866Z,2.33
2022-08-28T11:35:47.640Z,2.50
2022-08-28T11:38:48.709Z,2.55
2022-08-28T11:41:21.749Z,2.40
2022-08-28T11:43:52.462Z,2.40
2022-08-28T11:46:31.409Z,2.50
2022-08-28T11:49:01.858Z,2.50
2022-08-28T11:51:56.612Z,2.30
2022-08-28T11:54:47.539Z,2.03
2022-08-28T11:57:20.776Z,2.25
2022-08-28T12:00:08.387Z,2.17
2022-08-28T12:02:57.484Z,2.20
2022-08-28T12:05:45.375Z,2.60
2022-08-28T12:08:15.615Z,2.45
2022-08-28T12:10:56.636Z,2.25
2022-08-28T12:13:52.105Z,2.47
2022-08-28T12:16:20.140Z,2.50
2022-08-28T12:19:02.150Z,2.13
2022-08-28T12:21:31.690Z,2.60
2022-08-28T12:24:09.047Z,3.00
2022-08-28T12:26:43.424Z,2.30
2022-08-28T12:29:28.916Z,2.45
2022-08-28T12:32:27.284Z,2.30
2022-08-28T12:35:10.910Z,2.35
2022-08-28T12:37:52.537Z,2.05
2022-08-28T12:40:24.794Z,2.30
2022-08-28T12:42:56.368Z,2.25
2022-08-28T12:45:32.974Z,2.13
2022-08-28T12:48:05.828Z,2.10
2022-08-28T12:50:36.664Z,1.98
2022-08-28T12:53:07.168Z,2.10
2022-08-28T12:55:40.564Z,1.73
2022-08-28T12:58:14.065Z,1.60
2022-08-28T13:00:55.074Z,1.85
2022-08-28T13:03:23.323Z,2.10
2022-08-28T13:05:58.784Z,2.05
2022-08-28T13:08:26.879Z,1.88
2022-08-28T13:10:55.464Z,2.15
2022-08-28T13:13:30.276Z,1.90
2022-08-28T13:16:01.789Z,2.00
2022-08-28T13:18:49.979Z,1.70
2022-08-28T13:21:33.972Z,1.55
2022-08-28T13:24:27.698Z,2.10
2022-08-28T13:27:06.489Z,2.22
2022-08-28T13:29:35.464Z,1.85
2022-08-28T13:32:07.201Z,2.10
2022-08-28T13:34:37.728Z,1.60
2022-08-28T13:37:15.046Z,1.90
2022-08-28T13:39:48.669Z,2.00
2022-08-28T13:42:18.190Z,2.05
2022-08-28T13:44:50.648Z,1.92
2022-08-28T13:47:22.623Z,2.00
2022-08-28T13:49:50.739Z,1.90
2022-08-28T13:52:18.909Z,1.95
2022-08-28T13:54:46.904Z,1.75
2022-08-28T13:57:15.592Z,1.92
2022-08-28T13:59:43.708Z,1.85
2022-08-28T14:02:32.142Z,1.98
2022-08-28T14:05:01.834Z,2.20
2022-08-28T14:07:30.227Z,2.00
2022-08-28T14:09:58.659Z,1.90
2022-08-28T14:12:32.899Z,1.60
2022-08-28T14:15:02.259Z,1.90
2022-08-28T14:17:33.404Z,1.88
2022-08-28T14:20:03.121Z,2.38
2022-08-28T14:22:31.390Z,1.65
2022-08-28T14:24:59.375Z,1.77
2022-08-28T14:27:27.479Z,1.80
2022-08-28T14:29:55.892Z,1.85
2022-08-28T14:32:24.115Z,1.98
2022-08-28T14:34:52.199Z,2.00
2022-08-28T14:37:21.744Z,2.80
2022-08-28T14:39:50.836Z,1.85
2022-08-28T14:42:19.397Z,2.67
2022-08-28T14:44:47.489Z,1.80
2022-08-28T14:47:15.700Z,2.30
2022-08-28T14:49:43.741Z,1.92
2022-08-28T14:52:12.479Z,2.20
2022-08-28T14:54:41.896Z,1.70
2022-08-28T14:57:11.845Z,2.30
2022-08-28T14:59:39.946Z,1.90
2022-08-28T15:02:08.928Z,1.70
2022-08-28T15:04:38.093Z,2.28
2022-08-28T15:07:08.668Z,2.28
2022-08-28T15:09:38.779Z,2.17
2022-08-28T15:12:09.211Z,2.00
2022-08-28T15:14:37.800Z,2.10
2022-08-28T15:17:06.599Z,1.90
2022-08-28T15:19:34.607Z,1.98
2022-08-28T15:22:04.287Z,2.30
2022-08-28T15:24:34.631Z,2.03
2022-08-28T15:27:03.248Z,2.38
2022-08-28T15:29:32.770Z,2.08
2022-08-28T15:32:01.817Z,2.00
2022-08-28T15:34:30.593Z,1.90
2022-08-28T15:36:59.339Z,2.10
2022-08-28T15:39:46.592Z,2.17
2022-08-28T15:42:15.114Z,2.22
2022-08-28T15:44:45.293Z,2.05
2022-08-28T15:47:14.842Z,2.15
2022-08-28T15:49:49.693Z,2.70
2022-08-28T15:52:19.396Z,2.10
2022-08-28T15:54:47.314Z,2.47
2022-08-28T15:57:15.395Z,2.08
2022-08-28T15:59:48.885Z,2.28
2022-08-28T16:02:19.403Z,2.17
2022-08-28T16:04:47.565Z,2.30
2022-08-28T16:07:15.738Z,2.40
2022-08-28T16:09:43.818Z,2.50
2022-08-28T16:12:19.688Z,2.33
2022-08-28T16:14:50.350Z,2.80
2022-08-28T16:17:19.015Z,2.60
2022-08-28T16:19:48.310Z,2.40
2022-08-28T16:22:17.528Z,2.60
2022-08-28T16:24:46.581Z,2.72
2022-08-28T16:27:15.985Z,2.42
2022-08-28T16:29:45.438Z,2.28
2022-08-28T16:32:14.882Z,2.40
2022-08-28T16:34:44.971Z,2.42
2022-08-28T16:37:13.271Z,2.88
2022-08-28T16:39:46.592Z,2.70
2022-08-28T16:42:15.541Z,2.80
2022-08-28T16:44:43.534Z,3.22
2022-08-28T16:47:11.680Z,2.80
2022-08-28T16:49:41.131Z,2.58
2022-08-28T16:52:09.146Z,2.67
2022-08-28T16:54:37.307Z,2.83
2022-08-28T16:57:16.706Z,2.80
2022-08-28T16:59:44.751Z,2.75
2022-08-28T17:02:13.429Z,2.75
2022-08-28T17:04:42.945Z,3.25
2022-08-28T17:07:10.983Z,3.13
2022-08-28T17:09:38.968Z,3.03
2022-08-28T17:12:07.244Z,3.00
2022-08-28T17:14:35.550Z,2.88
2022-08-28T17:17:03.521Z,3.63
2022-08-28T17:19:31.682Z,2.90
2022-08-28T17:22:18.236Z,3.00
2022-08-28T17:24:48.580Z,2.90
2022-08-28T17:27:21.507Z,3.40
2022-08-28T17:29:51.344Z,3.13
2022-08-28T17:32:19.734Z,3.00
2022-08-28T17:34:47.893Z,2.70
2022-08-28T17:37:19.052Z,3.03
2022-08-28T17:39:47.073Z,2.83
2022-08-28T17:42:15.204Z,3.25
2022-08-28T17:44:43.640Z,3.17
2022-08-28T17:47:12.433Z,3.30
2022-08-28T17:49:40.933Z,3.00
2022-08-28T17:52:08.931Z,3.30
2022-08-28T17:54:38.388Z,3.03
2022-08-28T17:57:06.974Z,2.80
2022-08-28T17:59:35.386Z,2.92
2022-08-28T18:02:03.641Z,3.10
2022-08-28T18:04:31.863Z,3.15
2022-08-28T18:07:00.078Z,3.17
2022-08-28T18:09:28.082Z,3.17
2022-08-28T18:11:57.524Z,3.00
2022-08-28T18:14:25.560Z,3.33
2022-08-28T18:16:56.642Z,3.30
2022-08-28T18:19:25.299Z,3.28
2022-08-28T18:21:53.505Z,3.25
2022-08-28T18:24:21.973Z,3.22
2022-08-28T18:26:50.608Z,3.10
2022-08-28T18:29:20.255Z,3.33
2022-08-28T18:31:49.615Z,3.25
2022-08-28T18:34:17.881Z,2.78
2022-08-28T18:36:46.172Z,2.72
2022-08-28T18:39:15.298Z,3.08
2022-08-28T18:41:55.252Z,3.10
2022-08-28T18:44:24.898Z,8.40
2022-08-28T18:46:53.209Z,3.45
2022-08-28T18:49:21.897Z,3.20
2022-08-28T18:51:50.448Z,3.58
2022-08-28T18:54:23.545Z,3.20
2022-08-28T18:56:51.747Z,3.38
2022-08-28T18:59:20.365Z,3.20
2022-08-28T19:01:49.847Z,3.70
2022-08-28T19:04:17.906Z,3.85
2022-08-28T19:06:46.408Z,3.45
2022-08-28T19:09:20.566Z,3.50
2022-08-28T19:11:49.340Z,3.63
2022-08-28T19:14:17.358Z,3.55
2022-08-28T19:16:45.456Z,3.60
2022-08-28T19:19:15.567Z,3.65
2022-08-28T19:21:44.110Z,4.15
2022-08-28T19:24:13.496Z,3.35
2022-08-28T19:26:41.465Z,3.58
2022-08-28T19:29:09.603Z,3.60
2022-08-28T19:31:38.036Z,8.27
2022-08-28T19:34:07.681Z,3.60
2022-08-28T19:36:37.592Z,3.42
2022-08-28T19:39:06.139Z,3.33
2022-08-28T19:41:34.661Z,3.28
2022-08-28T19:44:02.733Z,3.50
2022-08-28T19:46:31.514Z,3.45
2022-08-28T19:49:01.143Z,3.47
2022-08-28T19:51:29.843Z,3.65
2022-08-28T19:53:59.627Z,3.50
2022-08-28T19:56:28.366Z,3.70
2022-08-28T19:58:59.213Z,3.80
2022-08-28T20:01:29.475Z,3.30
2022-08-28T20:03:58.025Z,3.13
2022-08-28T20:06:26.054Z,3.63
2022-08-28T20:08:54.037Z,3.13
2022-08-28T20:11:30.212Z,3.15
2022-08-28T20:14:04.111Z,3.17
2022-08-28T20:16:35.347Z,5.30
2022-08-28T20:19:04.065Z,3.55
2022-08-28T20:21:37.157Z,3.50
2022-08-28T20:24:07.656Z,3.67
2022-08-28T20:26:37.756Z,3.78
2022-08-28T20:29:08.577Z,3.83
2022-08-28T20:31:40.378Z,3.50
2022-08-28T20:34:09.157Z,3.58
2022-08-28T20:36:37.574Z,3.65
2022-08-28T20:39:07.281Z,3.80
2022-08-28T20:41:37.497Z,3.65
2022-08-28T20:44:06.378Z,3.90
2022-08-28T20:46:40.428Z,4.03
2022-08-28T20:49:09.200Z,4.10
2022-08-28T20:51:57.117Z,3.75
2022-08-28T20:54:28.816Z,3.88
2022-08-28T20:57:01.789Z,4.05
2022-08-28T20:59:39.188Z,3.42
2022-08-28T21:02:10.559Z,3.33
2022-08-28T21:04:40.363Z,3.60
2022-08-28T21:07:08.547Z,3.78
2022-08-28T21:10:04.408Z,3.92
2022-08-28T21:12:25.963Z,5.95
2022-08-28T21:14:53.964Z,6.28
2022-08-28T21:17:29.579Z,4.05
2022-08-28T21:20:00.224Z,4.38
2022-08-28T21:22:28.989Z,3.80
2022-08-28T21:24:56.944Z,3.80
2022-08-28T21:27:26.859Z,4.22
2022-08-28T21:29:56.531Z,4.38
2022-08-28T21:32:24.535Z,3.95
2022-08-28T21:34:52.747Z,3.90
2022-08-28T21:37:20.760Z,3.90
2022-08-28T21:39:48.948Z,3.88
2022-08-28T21:42:17.034Z,3.63
2022-08-28T21:44:51.830Z,3.92
2022-08-28T21:47:21.429Z,4.10
2022-08-28T21:49:49.585Z,4.13
2022-08-28T21:52:18.239Z,3.83
2022-08-28T21:54:46.253Z,3.50
2022-08-28T21:57:14.428Z,3.65
2022-08-28T21:59:43.391Z,3.78
2022-08-28T22:02:12.948Z,3.70
2022-08-28T22:04:40.920Z,4.18
2022-08-28T22:07:11.147Z,4.32
2022-08-28T22:09:39.494Z,4.25
2022-08-28T22:12:09.001Z,3.75
2022-08-28T22:14:37.341Z,4.00
2022-08-28T22:17:10.679Z,4.10
2022-08-28T22:19:41.180Z,3.92
2022-08-28T22:22:27.096Z,3.65
2022-08-28T22:24:55.360Z,4.03
2022-08-28T22:27:23.787Z,3.55
2022-08-28T22:29:51.902Z,4.22
2022-08-28T22:32:25.477Z,3.45
2022-08-28T22:34:55.832Z,3.90
2022-08-28T22:37:24.161Z,3.95
2022-08-28T22:39:52.162Z,4.35
2022-08-28T22:42:20.228Z,3.70
2022-08-28T22:44:48.210Z,4.38
2022-08-28T22:47:16.247Z,4.00
2022-08-28T22:49:47.110Z,4.13
2022-08-28T22:52:16.591Z,3.90
2022-08-28T22:54:44.639Z,3.90
2022-08-28T22:57:12.668Z,4.03
2022-08-28T22:59:40.646Z,3.80
2022-08-28T23:02:08.829Z,4.45
2022-08-28T23:04:37.120Z,4.53
2022-08-28T23:07:07.794Z,4.28
2022-08-28T23:09:37.443Z,3.80
2022-08-28T23:12:07.427Z,4.70
2022-08-28T23:14:35.695Z,4.07
2022-08-28T23:17:03.853Z,4.30
2022-08-28T23:19:32.461Z,4.05
2022-08-28T23:22:00.928Z,4.38
2022-08-28T23:24:28.964Z,4.15
2022-08-28T23:27:09.331Z,3.92
2022-08-28T23:29:46.391Z,4.20
2022-08-28T23:32:21.279Z,3.97
2022-08-28T23:34:49.329Z,4.18
2022-08-28T23:37:17.588Z,4.00
2022-08-28T23:39:45.707Z,4.60
2022-08-28T23:42:15.066Z,4.47
2022-08-28T23:44:43.077Z,4.50
2022-08-28T23:47:13.774Z,4.40
2022-08-28T23:49:42.923Z,4.18
2022-08-28T23:52:11.013Z,4.20
2022-08-28T23:54:40.221Z,4.18
2022-08-28T23:57:09.228Z,4.32
2022-08-28T23:59:40.559Z,4.10
